sensor_id;sensor_type;location;lat;lon;timestamp;temperature;humidity
17483;DHT22;8858;52.308;20.994;2023-11-21T00:00:58;2.90;99.90
17483;DHT22;8858;52.308;20.994;2023-11-21T00:03:31;2.90;99.90
17483;DHT22;8858;52.308;20.994;2023-11-21T00:06:01;2.90;99.90
17483;DHT22;8858;52.308;20.994;2023-11-21T00:08:30;2.90;99.90
17483;DHT22;8858;52.308;20.994;2023-11-21T00:10:58;2.90;99.90
17483;DHT22;8858;52.308;20.994;2023-11-21T00:13:28;2.90;99.90
17483;DHT22;8858;52.308;20.994;2023-11-21T00:15:56;2.90;99.90
17483;DHT22;8858;52.308;20.994;2023-11-21T00:18:49;2.90;99.90
17483;DHT22;8858;52.308;20.994;2023-11-21T00:21:19;2.90;99.90
17483;DHT22;8858;52.308;20.994;2023-11-21T00:23:48;2.90;99.90
17483;DHT22;8858;52.308;20.994;2023-11-21T00:26:17;2.90;99.90
17483;DHT22;8858;52.308;20.994;2023-11-21T00:28:56;2.90;99.90
17483;DHT22;8858;52.308;20.994;2023-11-21T00:31:25;2.90;99.90
17483;DHT22;8858;52.308;20.994;2023-11-21T00:33:53;2.90;99.90
17483;DHT22;8858;52.308;20.994;2023-11-21T00:36:24;2.90;99.90
17483;DHT22;8858;52.308;20.994;2023-11-21T00:38:52;2.80;99.90
17483;DHT22;8858;52.308;20.994;2023-11-21T00:41:23;2.80;99.90
17483;DHT22;8858;52.308;20.994;2023-11-21T00:43:53;2.80;99.90
17483;DHT22;8858;52.308;20.994;2023-11-21T00:46:22;2.80;99.90
17483;DHT22;8858;52.308;20.994;2023-11-21T00:48:51;2.80;99.90
17483;DHT22;8858;52.308;20.994;2023-11-21T00:51:23;2.80;99.90
17483;DHT22;8858;52.308;20.994;2023-11-21T00:53:52;2.70;99.90
17483;DHT22;8858;52.308;20.994;2023-11-21T00:56:20;2.80;99.90
17483;DHT22;8858;52.308;20.994;2023-11-21T00:58:50;2.80;99.90
17483;DHT22;8858;52.308;20.994;2023-11-21T01:01:20;2.70;99.90
17483;DHT22;8858;52.308;20.994;2023-11-21T01:03:49;2.70;99.90
17483;DHT22;8858;52.308;20.994;2023-11-21T01:06:18;2.70;99.90
17483;DHT22;8858;52.308;20.994;2023-11-21T01:08:49;2.70;99.90
17483;DHT22;8858;52.308;20.994;2023-11-21T01:11:18;2.70;99.90
17483;DHT22;8858;52.308;20.994;2023-11-21T01:13:47;2.70;99.90
17483;DHT22;8858;52.308;20.994;2023-11-21T01:16:15;2.70;99.90
17483;DHT22;8858;52.308;20.994;2023-11-21T01:18:44;2.70;99.90
17483;DHT22;8858;52.308;20.994;2023-11-21T01:21:16;2.70;99.90
17483;DHT22;8858;52.308;20.994;2023-11-21T01:23:45;2.70;99.90
17483;DHT22;8858;52.308;20.994;2023-11-21T01:26:17;2.70;99.90
17483;DHT22;8858;52.308;20.994;2023-11-21T01:28:46;2.60;99.90
17483;DHT22;8858;52.308;20.994;2023-11-21T01:31:17;2.60;99.90
17483;DHT22;8858;52.308;20.994;2023-11-21T01:33:48;2.60;99.90
17483;DHT22;8858;52.308;20.994;2023-11-21T01:36:19;2.60;99.90
17483;DHT22;8858;52.308;20.994;2023-11-21T01:38:47;2.60;99.90
17483;DHT22;8858;52.308;20.994;2023-11-21T01:41:17;2.60;99.90
17483;DHT22;8858;52.308;20.994;2023-11-21T01:43:47;2.60;99.90
17483;DHT22;8858;52.308;20.994;2023-11-21T01:46:16;2.60;99.90
17483;DHT22;8858;52.308;20.994;2023-11-21T01:48:48;2.60;99.90
17483;DHT22;8858;52.308;20.994;2023-11-21T01:51:20;2.60;99.90
17483;DHT22;8858;52.308;20.994;2023-11-21T01:53:49;2.60;99.90
17483;DHT22;8858;52.308;20.994;2023-11-21T01:56:20;2.60;99.90
17483;DHT22;8858;52.308;20.994;2023-11-21T01:58:49;2.60;99.90
17483;DHT22;8858;52.308;20.994;2023-11-21T02:01:18;2.60;99.90
17483;DHT22;8858;52.308;20.994;2023-11-21T02:03:49;2.60;99.90
17483;DHT22;8858;52.308;20.994;2023-11-21T02:06:19;2.60;99.90
17483;DHT22;8858;52.308;20.994;2023-11-21T02:08:50;2.60;99.90
17483;DHT22;8858;52.308;20.994;2023-11-21T02:11:25;2.60;99.90
17483;DHT22;8858;52.308;20.994;2023-11-21T02:13:54;2.60;99.90
17483;DHT22;8858;52.308;20.994;2023-11-21T02:16:25;2.60;99.90
17483;DHT22;8858;52.308;20.994;2023-11-21T02:18:54;2.60;99.90
17483;DHT22;8858;52.308;20.994;2023-11-21T02:21:25;2.60;99.90
17483;DHT22;8858;52.308;20.994;2023-11-21T02:23:59;2.50;99.90
17483;DHT22;8858;52.308;20.994;2023-11-21T02:26:27;2.50;99.90
17483;DHT22;8858;52.308;20.994;2023-11-21T02:28:57;2.50;99.90
17483;DHT22;8858;52.308;20.994;2023-11-21T02:31:25;2.50;99.90
17483;DHT22;8858;52.308;20.994;2023-11-21T02:33:54;2.50;99.90
17483;DHT22;8858;52.308;20.994;2023-11-21T02:36:26;2.50;99.90
17483;DHT22;8858;52.308;20.994;2023-11-21T02:38:55;2.50;99.90
17483;DHT22;8858;52.308;20.994;2023-11-21T02:41:24;2.50;99.90
17483;DHT22;8858;52.308;20.994;2023-11-21T02:43:53;2.50;99.90
17483;DHT22;8858;52.308;20.994;2023-11-21T02:46:21;2.50;99.90
17483;DHT22;8858;52.308;20.994;2023-11-21T02:48:50;2.50;99.90
17483;DHT22;8858;52.308;20.994;2023-11-21T02:51:21;2.50;99.90
17483;DHT22;8858;52.308;20.994;2023-11-21T02:53:50;2.50;99.90
17483;DHT22;8858;52.308;20.994;2023-11-21T02:56:19;2.50;99.90
17483;DHT22;8858;52.308;20.994;2023-11-21T02:58:52;2.50;99.90
17483;DHT22;8858;52.308;20.994;2023-11-21T03:01:20;2.50;99.90
17483;DHT22;8858;52.308;20.994;2023-11-21T03:03:49;2.50;99.90
17483;DHT22;8858;52.308;20.994;2023-11-21T03:06:18;2.50;99.90
17483;DHT22;8858;52.308;20.994;2023-11-21T03:08:47;2.50;99.90
17483;DHT22;8858;52.308;20.994;2023-11-21T03:11:20;2.50;99.90
17483;DHT22;8858;52.308;20.994;2023-11-21T03:13:52;2.50;99.90
17483;DHT22;8858;52.308;20.994;2023-11-21T03:16:21;2.50;99.90
17483;DHT22;8858;52.308;20.994;2023-11-21T03:18:49;2.50;99.90
17483;DHT22;8858;52.308;20.994;2023-11-21T03:21:21;2.50;99.90
17483;DHT22;8858;52.308;20.994;2023-11-21T03:23:50;2.50;99.90
17483;DHT22;8858;52.308;20.994;2023-11-21T03:26:19;2.40;99.90
17483;DHT22;8858;52.308;20.994;2023-11-21T03:28:48;2.50;99.90
17483;DHT22;8858;52.308;20.994;2023-11-21T03:31:18;2.50;99.90
17483;DHT22;8858;52.308;20.994;2023-11-21T03:33:46;2.40;99.90
17483;DHT22;8858;52.308;20.994;2023-11-21T03:36:15;2.40;99.90
17483;DHT22;8858;52.308;20.994;2023-11-21T03:38:48;2.40;99.90
17483;DHT22;8858;52.308;20.994;2023-11-21T03:41:16;2.50;99.90
17483;DHT22;8858;52.308;20.994;2023-11-21T03:43:45;2.40;99.90
17483;DHT22;8858;52.308;20.994;2023-11-21T03:46:40;2.40;99.90
17483;DHT22;8858;52.308;20.994;2023-11-21T03:49:10;2.40;99.90
17483;DHT22;8858;52.308;20.994;2023-11-21T03:51:41;2.40;99.90
17483;DHT22;8858;52.308;20.994;2023-11-21T03:54:10;2.40;99.90
17483;DHT22;8858;52.308;20.994;2023-11-21T03:56:39;2.40;99.90
17483;DHT22;8858;52.308;20.994;2023-11-21T03:59:07;2.40;99.90
17483;DHT22;8858;52.308;20.994;2023-11-21T04:01:36;2.40;99.90
17483;DHT22;8858;52.308;20.994;2023-11-21T04:04:10;2.40;99.90
17483;DHT22;8858;52.308;20.994;2023-11-21T04:06:40;2.40;99.90
17483;DHT22;8858;52.308;20.994;2023-11-21T04:09:09;2.40;99.90
17483;DHT22;8858;52.308;20.994;2023-11-21T04:11:37;2.40;99.90
17483;DHT22;8858;52.308;20.994;2023-11-21T04:14:05;2.40;99.90
17483;DHT22;8858;52.308;20.994;2023-11-21T04:16:37;2.40;99.90
17483;DHT22;8858;52.308;20.994;2023-11-21T04:19:05;2.40;99.90
17483;DHT22;8858;52.308;20.994;2023-11-21T04:21:35;2.30;99.90
17483;DHT22;8858;52.308;20.994;2023-11-21T04:24:05;2.30;99.90
17483;DHT22;8858;52.308;20.994;2023-11-21T04:26:33;2.30;99.90
17483;DHT22;8858;52.308;20.994;2023-11-21T04:29:05;2.30;99.90
17483;DHT22;8858;52.308;20.994;2023-11-21T04:31:33;2.30;99.90
17483;DHT22;8858;52.308;20.994;2023-11-21T04:34:03;2.30;99.90
17483;DHT22;8858;52.308;20.994;2023-11-21T04:36:32;2.30;99.90
17483;DHT22;8858;52.308;20.994;2023-11-21T04:39:03;2.30;99.90
17483;DHT22;8858;52.308;20.994;2023-11-21T04:41:37;2.30;99.90
17483;DHT22;8858;52.308;20.994;2023-11-21T04:44:06;2.30;99.90
17483;DHT22;8858;52.308;20.994;2023-11-21T04:46:34;2.30;99.90
17483;DHT22;8858;52.308;20.994;2023-11-21T04:49:03;2.30;99.90
17483;DHT22;8858;52.308;20.994;2023-11-21T04:51:31;2.30;99.90
17483;DHT22;8858;52.308;20.994;2023-11-21T04:54:00;2.30;99.90
17483;DHT22;8858;52.308;20.994;2023-11-21T04:56:29;2.30;99.90
17483;DHT22;8858;52.308;20.994;2023-11-21T04:58:59;2.30;99.90
17483;DHT22;8858;52.308;20.994;2023-11-21T05:01:27;2.30;99.90
17483;DHT22;8858;52.308;20.994;2023-11-21T05:03:55;2.30;99.90
17483;DHT22;8858;52.308;20.994;2023-11-21T05:06:24;2.30;99.90
17483;DHT22;8858;52.308;20.994;2023-11-21T05:08:53;2.30;99.90
17483;DHT22;8858;52.308;20.994;2023-11-21T05:11:25;2.20;99.90
17483;DHT22;8858;52.308;20.994;2023-11-21T05:13:55;2.20;99.90
17483;DHT22;8858;52.308;20.994;2023-11-21T05:16:25;2.30;99.90
17483;DHT22;8858;52.308;20.994;2023-11-21T05:18:58;2.20;99.90
17483;DHT22;8858;52.308;20.994;2023-11-21T05:21:28;2.20;99.90
17483;DHT22;8858;52.308;20.994;2023-11-21T05:23:58;2.20;99.90
17483;DHT22;8858;52.308;20.994;2023-11-21T05:26:26;2.20;99.90
17483;DHT22;8858;52.308;20.994;2023-11-21T05:28:56;2.20;99.90
17483;DHT22;8858;52.308;20.994;2023-11-21T05:31:30;2.20;99.90
17483;DHT22;8858;52.308;20.994;2023-11-21T05:33:58;2.20;99.90
17483;DHT22;8858;52.308;20.994;2023-11-21T05:36:26;2.20;99.90
17483;DHT22;8858;52.308;20.994;2023-11-21T05:38:55;2.20;99.90
17483;DHT22;8858;52.308;20.994;2023-11-21T05:41:24;2.20;99.90
17483;DHT22;8858;52.308;20.994;2023-11-21T05:43:58;2.20;99.90
17483;DHT22;8858;52.308;20.994;2023-11-21T05:46:26;2.20;99.90
17483;DHT22;8858;52.308;20.994;2023-11-21T05:48:54;2.20;99.90
17483;DHT22;8858;52.308;20.994;2023-11-21T05:51:24;2.20;99.90
17483;DHT22;8858;52.308;20.994;2023-11-21T05:53:52;2.20;99.90
17483;DHT22;8858;52.308;20.994;2023-11-21T05:56:23;2.20;99.90
17483;DHT22;8858;52.308;20.994;2023-11-21T05:58:51;2.20;99.90
17483;DHT22;8858;52.308;20.994;2023-11-21T06:01:22;2.20;99.90
17483;DHT22;8858;52.308;20.994;2023-11-21T06:03:51;2.20;99.90
17483;DHT22;8858;52.308;20.994;2023-11-21T06:06:20;2.20;99.90
17483;DHT22;8858;52.308;20.994;2023-11-21T06:08:49;2.20;99.90
17483;DHT22;8858;52.308;20.994;2023-11-21T06:11:19;2.20;99.90
17483;DHT22;8858;52.308;20.994;2023-11-21T06:13:47;2.20;99.90
17483;DHT22;8858;52.308;20.994;2023-11-21T06:16:16;2.20;99.90
17483;DHT22;8858;52.308;20.994;2023-11-21T06:18:48;2.10;99.90
17483;DHT22;8858;52.308;20.994;2023-11-21T06:21:16;2.10;99.90
17483;DHT22;8858;52.308;20.994;2023-11-21T06:23:47;2.10;99.90
17483;DHT22;8858;52.308;20.994;2023-11-21T06:26:20;2.20;99.90
17483;DHT22;8858;52.308;20.994;2023-11-21T06:28:49;2.20;99.90
17483;DHT22;8858;52.308;20.994;2023-11-21T06:31:20;2.20;99.90
17483;DHT22;8858;52.308;20.994;2023-11-21T06:33:51;2.20;99.90
17483;DHT22;8858;52.308;20.994;2023-11-21T06:36:20;2.20;99.90
17483;DHT22;8858;52.308;20.994;2023-11-21T06:38:50;2.20;99.90
17483;DHT22;8858;52.308;20.994;2023-11-21T06:41:18;2.20;99.90
17483;DHT22;8858;52.308;20.994;2023-11-21T06:43:46;2.20;99.90
17483;DHT22;8858;52.308;20.994;2023-11-21T06:46:15;2.20;99.90
17483;DHT22;8858;52.308;20.994;2023-11-21T06:48:43;2.20;99.90
17483;DHT22;8858;52.308;20.994;2023-11-21T06:51:13;2.20;99.90
17483;DHT22;8858;52.308;20.994;2023-11-21T06:53:42;2.20;99.90
17483;DHT22;8858;52.308;20.994;2023-11-21T06:56:17;2.20;99.90
17483;DHT22;8858;52.308;20.994;2023-11-21T06:58:46;2.20;99.90
17483;DHT22;8858;52.308;20.994;2023-11-21T07:01:14;2.20;99.90
17483;DHT22;8858;52.308;20.994;2023-11-21T07:03:43;2.20;99.90
17483;DHT22;8858;52.308;20.994;2023-11-21T07:06:13;2.20;99.90
17483;DHT22;8858;52.308;20.994;2023-11-21T07:08:45;2.20;99.90
17483;DHT22;8858;52.308;20.994;2023-11-21T07:11:14;2.20;99.90
17483;DHT22;8858;52.308;20.994;2023-11-21T07:13:42;2.20;99.90
17483;DHT22;8858;52.308;20.994;2023-11-21T07:16:10;2.20;99.90
17483;DHT22;8858;52.308;20.994;2023-11-21T07:18:38;2.20;99.90
17483;DHT22;8858;52.308;20.994;2023-11-21T07:21:07;2.20;99.90
17483;DHT22;8858;52.308;20.994;2023-11-21T07:23:41;2.20;99.90
17483;DHT22;8858;52.308;20.994;2023-11-21T07:26:09;2.20;99.90
17483;DHT22;8858;52.308;20.994;2023-11-21T07:28:37;2.20;99.90
17483;DHT22;8858;52.308;20.994;2023-11-21T07:31:06;2.20;99.90
17483;DHT22;8858;52.308;20.994;2023-11-21T07:33:34;2.20;99.90
17483;DHT22;8858;52.308;20.994;2023-11-21T07:36:03;2.20;99.90
17483;DHT22;8858;52.308;20.994;2023-11-21T07:38:33;2.20;99.90
17483;DHT22;8858;52.308;20.994;2023-11-21T07:41:03;2.20;99.90
17483;DHT22;8858;52.308;20.994;2023-11-21T07:43:45;2.30;99.90
17483;DHT22;8858;52.308;20.994;2023-11-21T07:46:14;2.20;99.90
17483;DHT22;8858;52.308;20.994;2023-11-21T07:48:43;2.20;99.90
17483;DHT22;8858;52.308;20.994;2023-11-21T07:51:13;2.20;99.90
17483;DHT22;8858;52.308;20.994;2023-11-21T07:53:44;2.20;99.90
17483;DHT22;8858;52.308;20.994;2023-11-21T07:56:14;2.20;99.90
17483;DHT22;8858;52.308;20.994;2023-11-21T07:58:42;2.30;99.90
17483;DHT22;8858;52.308;20.994;2023-11-21T08:01:11;2.30;99.90
17483;DHT22;8858;52.308;20.994;2023-11-21T08:03:39;2.30;99.90
17483;DHT22;8858;52.308;20.994;2023-11-21T08:06:08;2.30;99.90
17483;DHT22;8858;52.308;20.994;2023-11-21T08:08:39;2.30;99.90
17483;DHT22;8858;52.308;20.994;2023-11-21T08:11:07;2.40;99.90
17483;DHT22;8858;52.308;20.994;2023-11-21T08:13:38;2.40;99.90
17483;DHT22;8858;52.308;20.994;2023-11-21T08:16:08;2.40;99.90
17483;DHT22;8858;52.308;20.994;2023-11-21T08:18:36;2.30;99.90
17483;DHT22;8858;52.308;20.994;2023-11-21T08:21:07;2.30;99.90
17483;DHT22;8858;52.308;20.994;2023-11-21T08:23:35;2.40;99.90
17483;DHT22;8858;52.308;20.994;2023-11-21T08:26:05;2.30;99.90
17483;DHT22;8858;52.308;20.994;2023-11-21T08:28:33;2.40;99.90
17483;DHT22;8858;52.308;20.994;2023-11-21T08:31:03;2.40;99.90
17483;DHT22;8858;52.308;20.994;2023-11-21T08:33:34;2.40;99.90
17483;DHT22;8858;52.308;20.994;2023-11-21T08:36:07;2.40;99.90
17483;DHT22;8858;52.308;20.994;2023-11-21T08:38:36;2.40;99.90
17483;DHT22;8858;52.308;20.994;2023-11-21T08:41:06;2.40;99.90
17483;DHT22;8858;52.308;20.994;2023-11-21T08:43:38;2.40;99.90
17483;DHT22;8858;52.308;20.994;2023-11-21T08:46:11;2.40;99.90
17483;DHT22;8858;52.308;20.994;2023-11-21T08:48:47;2.40;99.90
17483;DHT22;8858;52.308;20.994;2023-11-21T08:51:16;2.40;99.90
17483;DHT22;8858;52.308;20.994;2023-11-21T08:53:44;2.40;99.90
17483;DHT22;8858;52.308;20.994;2023-11-21T08:56:13;2.40;99.90
17483;DHT22;8858;52.308;20.994;2023-11-21T08:58:42;2.40;99.90
17483;DHT22;8858;52.308;20.994;2023-11-21T09:01:11;2.40;99.90
17483;DHT22;8858;52.308;20.994;2023-11-21T09:03:40;2.50;99.90
17483;DHT22;8858;52.308;20.994;2023-11-21T09:06:12;2.40;99.90
17483;DHT22;8858;52.308;20.994;2023-11-21T09:08:41;2.40;99.90
17483;DHT22;8858;52.308;20.994;2023-11-21T09:11:10;2.50;99.90
17483;DHT22;8858;52.308;20.994;2023-11-21T09:13:41;2.50;99.90
17483;DHT22;8858;52.308;20.994;2023-11-21T09:16:11;2.50;99.90
17483;DHT22;8858;52.308;20.994;2023-11-21T09:18:40;2.50;99.90
17483;DHT22;8858;52.308;20.994;2023-11-21T09:21:09;2.60;99.90
17483;DHT22;8858;52.308;20.994;2023-11-21T09:23:37;2.60;99.90
17483;DHT22;8858;52.308;20.994;2023-11-21T09:26:05;2.60;99.90
17483;DHT22;8858;52.308;20.994;2023-11-21T09:28:35;2.60;99.90
17483;DHT22;8858;52.308;20.994;2023-11-21T09:31:05;2.70;99.90
17483;DHT22;8858;52.308;20.994;2023-11-21T09:33:37;2.70;99.90
17483;DHT22;8858;52.308;20.994;2023-11-21T09:36:11;2.70;99.90
17483;DHT22;8858;52.308;20.994;2023-11-21T09:38:40;2.70;99.90
17483;DHT22;8858;52.308;20.994;2023-11-21T09:41:15;2.70;99.90
17483;DHT22;8858;52.308;20.994;2023-11-21T09:43:50;2.80;99.90
17483;DHT22;8858;52.308;20.994;2023-11-21T09:46:23;2.70;99.90
17483;DHT22;8858;52.308;20.994;2023-11-21T09:48:58;2.80;99.90
17483;DHT22;8858;52.308;20.994;2023-11-21T09:51:30;2.80;99.90
17483;DHT22;8858;52.308;20.994;2023-11-21T09:54:04;2.70;99.90
17483;DHT22;8858;52.308;20.994;2023-11-21T09:56:36;2.80;99.90
17483;DHT22;8858;52.308;20.994;2023-11-21T09:59:05;2.80;99.90
17483;DHT22;8858;52.308;20.994;2023-11-21T10:01:40;2.70;99.90
17483;DHT22;8858;52.308;20.994;2023-11-21T10:04:11;2.80;99.90
17483;DHT22;8858;52.308;20.994;2023-11-21T10:06:40;2.80;99.90
17483;DHT22;8858;52.308;20.994;2023-11-21T10:09:10;2.80;99.90
17483;DHT22;8858;52.308;20.994;2023-11-21T10:11:40;2.80;99.90
17483;DHT22;8858;52.308;20.994;2023-11-21T10:14:11;2.80;99.90
17483;DHT22;8858;52.308;20.994;2023-11-21T10:16:41;2.80;99.90
17483;DHT22;8858;52.308;20.994;2023-11-21T10:19:18;2.80;99.90
17483;DHT22;8858;52.308;20.994;2023-11-21T10:21:48;2.80;99.90
17483;DHT22;8858;52.308;20.994;2023-11-21T10:24:17;2.70;99.90
17483;DHT22;8858;52.308;20.994;2023-11-21T10:26:46;2.80;99.90
17483;DHT22;8858;52.308;20.994;2023-11-21T10:29:20;2.90;99.90
17483;DHT22;8858;52.308;20.994;2023-11-21T10:31:49;2.90;99.90
17483;DHT22;8858;52.308;20.994;2023-11-21T10:34:23;2.80;99.90
17483;DHT22;8858;52.308;20.994;2023-11-21T10:36:52;2.90;99.90
17483;DHT22;8858;52.308;20.994;2023-11-21T10:39:20;2.90;99.90
17483;DHT22;8858;52.308;20.994;2023-11-21T10:41:50;2.90;99.90
17483;DHT22;8858;52.308;20.994;2023-11-21T10:44:19;2.90;99.90
17483;DHT22;8858;52.308;20.994;2023-11-21T10:46:53;2.90;99.90
17483;DHT22;8858;52.308;20.994;2023-11-21T10:49:26;2.90;99.90
17483;DHT22;8858;52.308;20.994;2023-11-21T10:51:59;2.90;99.90
17483;DHT22;8858;52.308;20.994;2023-11-21T10:54:28;2.90;99.90
17483;DHT22;8858;52.308;20.994;2023-11-21T10:56:57;2.90;99.90
17483;DHT22;8858;52.308;20.994;2023-11-21T10:59:29;2.90;99.90
17483;DHT22;8858;52.308;20.994;2023-11-21T11:02:01;2.90;99.90
17483;DHT22;8858;52.308;20.994;2023-11-21T11:04:34;2.90;99.90
17483;DHT22;8858;52.308;20.994;2023-11-21T11:07:08;2.90;99.90
17483;DHT22;8858;52.308;20.994;2023-11-21T11:09:40;2.90;99.90
17483;DHT22;8858;52.308;20.994;2023-11-21T11:12:09;2.90;99.90
17483;DHT22;8858;52.308;20.994;2023-11-21T11:14:41;2.90;99.90
17483;DHT22;8858;52.308;20.994;2023-11-21T11:17:14;2.90;99.90
17483;DHT22;8858;52.308;20.994;2023-11-21T11:19:45;2.90;99.90
17483;DHT22;8858;52.308;20.994;2023-11-21T11:22:24;2.90;99.90
17483;DHT22;8858;52.308;20.994;2023-11-21T11:25:12;2.90;99.90
17483;DHT22;8858;52.308;20.994;2023-11-21T11:27:55;2.90;99.90
17483;DHT22;8858;52.308;20.994;2023-11-21T11:30:36;2.90;99.90
17483;DHT22;8858;52.308;20.994;2023-11-21T11:33:15;2.90;99.90
17483;DHT22;8858;52.308;20.994;2023-11-21T11:36:04;2.90;99.90
17483;DHT22;8858;52.308;20.994;2023-11-21T11:38:34;2.90;99.90
17483;DHT22;8858;52.308;20.994;2023-11-21T11:41:07;2.90;99.90
17483;DHT22;8858;52.308;20.994;2023-11-21T11:43:36;2.90;99.90
17483;DHT22;8858;52.308;20.994;2023-11-21T11:46:13;2.90;99.90
17483;DHT22;8858;52.308;20.994;2023-11-21T11:48:46;2.90;99.90
17483;DHT22;8858;52.308;20.994;2023-11-21T11:51:16;2.80;99.90
17483;DHT22;8858;52.308;20.994;2023-11-21T11:53:47;2.80;99.90
17483;DHT22;8858;52.308;20.994;2023-11-21T11:56:23;2.80;99.90
17483;DHT22;8858;52.308;20.994;2023-11-21T11:58:55;2.80;99.90
17483;DHT22;8858;52.308;20.994;2023-11-21T12:01:25;2.80;99.90
17483;DHT22;8858;52.308;20.994;2023-11-21T12:04:25;2.80;99.90
17483;DHT22;8858;52.308;20.994;2023-11-21T12:07:07;2.80;99.90
17483;DHT22;8858;52.308;20.994;2023-11-21T12:09:37;2.80;99.90
17483;DHT22;8858;52.308;20.994;2023-11-21T12:12:06;2.80;99.90
17483;DHT22;8858;52.308;20.994;2023-11-21T12:14:36;2.90;99.90
17483;DHT22;8858;52.308;20.994;2023-11-21T12:17:05;2.90;99.90
17483;DHT22;8858;52.308;20.994;2023-11-21T12:19:35;2.90;99.90
17483;DHT22;8858;52.308;20.994;2023-11-21T12:22:06;2.90;99.90
17483;DHT22;8858;52.308;20.994;2023-11-21T12:24:35;2.90;99.90
17483;DHT22;8858;52.308;20.994;2023-11-21T12:27:05;2.90;99.90
17483;DHT22;8858;52.308;20.994;2023-11-21T12:29:34;2.90;99.90
17483;DHT22;8858;52.308;20.994;2023-11-21T12:32:05;2.90;99.90
17483;DHT22;8858;52.308;20.994;2023-11-21T12:34:38;2.90;99.90
17483;DHT22;8858;52.308;20.994;2023-11-21T12:37:08;3.00;99.90
17483;DHT22;8858;52.308;20.994;2023-11-21T12:39:38;3.00;99.90
17483;DHT22;8858;52.308;20.994;2023-11-21T12:42:07;3.00;99.90
17483;DHT22;8858;52.308;20.994;2023-11-21T12:44:35;3.00;99.90
17483;DHT22;8858;52.308;20.994;2023-11-21T12:47:04;3.00;99.90
17483;DHT22;8858;52.308;20.994;2023-11-21T12:49:34;3.00;99.90
17483;DHT22;8858;52.308;20.994;2023-11-21T12:52:03;3.00;99.90
17483;DHT22;8858;52.308;20.994;2023-11-21T12:54:36;3.00;99.90
17483;DHT22;8858;52.308;20.994;2023-11-21T12:57:04;3.00;99.90
17483;DHT22;8858;52.308;20.994;2023-11-21T12:59:35;3.00;99.90
17483;DHT22;8858;52.308;20.994;2023-11-21T13:02:08;2.90;99.90
17483;DHT22;8858;52.308;20.994;2023-11-21T13:04:37;3.00;99.90
17483;DHT22;8858;52.308;20.994;2023-11-21T13:07:06;2.90;99.90
17483;DHT22;8858;52.308;20.994;2023-11-21T13:09:41;3.00;99.90
17483;DHT22;8858;52.308;20.994;2023-11-21T13:12:09;3.00;99.90
17483;DHT22;8858;52.308;20.994;2023-11-21T13:14:39;3.00;99.90
17483;DHT22;8858;52.308;20.994;2023-11-21T13:17:07;3.00;99.90
17483;DHT22;8858;52.308;20.994;2023-11-21T13:19:37;3.00;99.90
17483;DHT22;8858;52.308;20.994;2023-11-21T13:22:06;3.00;99.90
17483;DHT22;8858;52.308;20.994;2023-11-21T13:24:38;3.00;99.90
17483;DHT22;8858;52.308;20.994;2023-11-21T13:27:08;3.00;99.90
17483;DHT22;8858;52.308;20.994;2023-11-21T13:29:39;3.00;99.90
17483;DHT22;8858;52.308;20.994;2023-11-21T13:32:08;3.00;99.90
17483;DHT22;8858;52.308;20.994;2023-11-21T13:34:38;3.00;99.90
17483;DHT22;8858;52.308;20.994;2023-11-21T13:37:12;3.00;99.90
17483;DHT22;8858;52.308;20.994;2023-11-21T13:39:40;3.00;99.90
17483;DHT22;8858;52.308;20.994;2023-11-21T13:42:15;3.00;99.90
17483;DHT22;8858;52.308;20.994;2023-11-21T13:44:44;3.00;99.90
17483;DHT22;8858;52.308;20.994;2023-11-21T13:47:17;2.90;99.90
17483;DHT22;8858;52.308;20.994;2023-11-21T13:49:45;2.90;99.90
17483;DHT22;8858;52.308;20.994;2023-11-21T13:52:15;2.90;99.90
17483;DHT22;8858;52.308;20.994;2023-11-21T13:54:45;2.80;99.90
17483;DHT22;8858;52.308;20.994;2023-11-21T13:57:16;2.80;99.90
17483;DHT22;8858;52.308;20.994;2023-11-21T13:59:44;2.80;99.90
17483;DHT22;8858;52.308;20.994;2023-11-21T14:02:15;2.80;99.90
17483;DHT22;8858;52.308;20.994;2023-11-21T14:04:45;2.70;99.90
17483;DHT22;8858;52.308;20.994;2023-11-21T14:07:25;2.70;99.90
17483;DHT22;8858;52.308;20.994;2023-11-21T14:10:00;2.70;99.90
17483;DHT22;8858;52.308;20.994;2023-11-21T14:12:34;2.70;99.90
17483;DHT22;8858;52.308;20.994;2023-11-21T14:15:07;2.60;99.90
17483;DHT22;8858;52.308;20.994;2023-11-21T14:17:39;2.60;99.90
17483;DHT22;8858;52.308;20.994;2023-11-21T14:20:09;2.60;99.90
17483;DHT22;8858;52.308;20.994;2023-11-21T14:22:48;2.50;99.90
17483;DHT22;8858;52.308;20.994;2023-11-21T14:25:16;2.50;99.90
17483;DHT22;8858;52.308;20.994;2023-11-21T14:27:47;2.50;99.90
17483;DHT22;8858;52.308;20.994;2023-11-21T14:30:15;2.50;99.90
17483;DHT22;8858;52.308;20.994;2023-11-21T14:32:46;2.50;99.90
17483;DHT22;8858;52.308;20.994;2023-11-21T14:35:15;2.40;99.90
17483;DHT22;8858;52.308;20.994;2023-11-21T14:37:44;2.40;99.90
17483;DHT22;8858;52.308;20.994;2023-11-21T14:40:13;2.40;99.90
17483;DHT22;8858;52.308;20.994;2023-11-21T14:42:47;2.40;99.90
17483;DHT22;8858;52.308;20.994;2023-11-21T14:45:15;2.40;99.90
17483;DHT22;8858;52.308;20.994;2023-11-21T14:47:47;2.40;99.90
17483;DHT22;8858;52.308;20.994;2023-11-21T14:50:23;2.40;99.90
17483;DHT22;8858;52.308;20.994;2023-11-21T14:53:14;2.40;99.90
17483;DHT22;8858;52.308;20.994;2023-11-21T14:55:43;2.40;99.90
17483;DHT22;8858;52.308;20.994;2023-11-21T14:58:25;2.40;99.90
17483;DHT22;8858;52.308;20.994;2023-11-21T15:00:57;2.40;99.90
17483;DHT22;8858;52.308;20.994;2023-11-21T15:03:29;2.40;99.90
17483;DHT22;8858;52.308;20.994;2023-11-21T15:06:17;2.30;99.90
17483;DHT22;8858;52.308;20.994;2023-11-21T15:08:55;2.30;99.90
17483;DHT22;8858;52.308;20.994;2023-11-21T15:11:46;2.30;99.90
17483;DHT22;8858;52.308;20.994;2023-11-21T15:14:15;2.30;99.90
17483;DHT22;8858;52.308;20.994;2023-11-21T15:16:50;2.30;99.90
17483;DHT22;8858;52.308;20.994;2023-11-21T15:19:20;2.30;99.90
17483;DHT22;8858;52.308;20.994;2023-11-21T15:21:53;2.30;99.90
17483;DHT22;8858;52.308;20.994;2023-11-21T15:24:25;2.20;99.90
17483;DHT22;8858;52.308;20.994;2023-11-21T15:26:53;2.20;99.90
17483;DHT22;8858;52.308;20.994;2023-11-21T15:29:23;2.20;99.90
17483;DHT22;8858;52.308;20.994;2023-11-21T15:31:53;2.20;99.90
17483;DHT22;8858;52.308;20.994;2023-11-21T15:34:23;2.20;99.90
17483;DHT22;8858;52.308;20.994;2023-11-21T15:36:53;2.20;99.90
17483;DHT22;8858;52.308;20.994;2023-11-21T15:39:21;2.20;99.90
17483;DHT22;8858;52.308;20.994;2023-11-21T15:41:53;2.20;99.90
17483;DHT22;8858;52.308;20.994;2023-11-21T15:44:23;2.20;99.90
17483;DHT22;8858;52.308;20.994;2023-11-21T15:46:54;2.20;99.90
17483;DHT22;8858;52.308;20.994;2023-11-21T15:49:22;2.20;99.90
17483;DHT22;8858;52.308;20.994;2023-11-21T15:51:55;2.20;99.90
17483;DHT22;8858;52.308;20.994;2023-11-21T15:54:28;2.20;99.90
17483;DHT22;8858;52.308;20.994;2023-11-21T15:57:00;2.20;99.90
17483;DHT22;8858;52.308;20.994;2023-11-21T15:59:33;2.20;99.90
17483;DHT22;8858;52.308;20.994;2023-11-21T16:02:01;2.20;99.90
17483;DHT22;8858;52.308;20.994;2023-11-21T16:04:32;2.20;99.90
17483;DHT22;8858;52.308;20.994;2023-11-21T16:07:04;2.20;99.90